Time,TemperatureF,DewpointF,PressureIn,WindDirection,WindDirectionDegrees,WindSpeedMPH,WindSpeedGustMPH,Humidity,HourlyPrecipIn,Conditions,Clouds,dailyrainin,SolarRadiationWatts/m^2,SoftwareType,DateUTC
2013-05-25 00:02:00,55.2,46.0,29.73,SW,215,0.0,1.0,72,0.00,,,0.00,0,weatherlink.com 1.10,2013-05-24 22:02:00,
2013-05-25 00:17:00,55.1,46.0,29.73,SW,216,0.0,0.0,72,0.00,,,0.00,0,weatherlink.com 1.10,2013-05-24 22:17:00,
2013-05-25 00:32:00,55.0,47.0,29.73,SW,215,0.0,1.0,74,0.00,,,0.00,0,weatherlink.com 1.10,2013-05-24 22:32:00,
2013-05-25 00:47:00,54.8,47.0,29.73,SW,235,0.0,2.0,74,0.00,,,0.00,0,weatherlink.com 1.10,2013-05-24 22:47:00,
2013-05-25 01:02:00,54.9,46.0,29.73,North,360,0.0,1.0,73,0.00,,,0.00,0,weatherlink.com 1.10,2013-05-24 23:02:00,
2013-05-25 01:17:00,55.1,47.0,29.73,SW,221,0.0,1.0,73,0.00,,,0.00,0,weatherlink.com 1.10,2013-05-24 23:17:00,
2013-05-25 01:32:00,55.1,47.0,29.72,SW,222,1.0,1.0,73,0.00,,,0.00,0,weatherlink.com 1.10,2013-05-24 23:32:00,
2013-05-25 01:47:00,54.7,47.0,29.72,SW,223,0.0,1.0,74,0.00,,,0.00,0,weatherlink.com 1.10,2013-05-24 23:47:00,
2013-05-25 02:02:00,54.3,46.0,29.72,SW,222,0.0,1.0,74,0.00,,,0.00,0,weatherlink.com 1.10,2013-05-25 00:02:00,
2013-05-25 02:17:00,54.0,46.0,29.71,SW,223,0.0,3.0,74,0.00,,,0.00,0,weatherlink.com 1.10,2013-05-25 00:17:00,
2013-05-25 02:32:00,54.2,46.0,29.71,North,360,0.0,0.0,75,0.00,,,0.00,0,weatherlink.com 1.10,2013-05-25 00:32:00,
2013-05-25 02:47:00,54.5,48.0,29.71,North,360,0.0,1.0,78,0.00,,,0.00,0,weatherlink.com 1.10,2013-05-25 00:47:00,
2013-05-25 03:02:00,54.5,48.0,29.71,SW,221,0.0,0.0,79,0.00,,,0.00,0,weatherlink.com 1.10,2013-05-25 01:02:00,
2013-05-25 03:17:00,53.8,47.0,29.72,North,360,0.0,2.0,78,0.00,,,0.00,0,weatherlink.com 1.10,2013-05-25 01:17:00,
2013-05-25 03:32:00,53.3,47.0,29.72,North,360,1.0,2.0,79,0.00,,,0.00,0,weatherlink.com 1.10,2013-05-25 01:32:00,
2013-05-25 03:47:00,53.1,47.0,29.71,North,360,0.0,1.0,80,0.00,,,0.00,0,weatherlink.com 1.10,2013-05-25 01:47:00,
2013-05-25 04:02:00,53.1,47.0,29.71,North,360,2.0,4.0,80,0.00,,,0.00,0,weatherlink.com 1.10,2013-05-25 02:02:00,
2013-05-25 04:17:00,52.9,47.0,29.71,NE,43,0.0,5.0,81,0.00,,,0.00,0,weatherlink.com 1.10,2013-05-25 02:17:00,
2013-05-25 04:32:00,52.8,47.0,29.70,WSW,250,1.0,2.0,81,0.00,,,0.00,0,weatherlink.com 1.10,2013-05-25 02:32:00,
2013-05-25 04:47:00,52.6,47.0,29.71,NW,310,0.0,2.0,80,0.00,,,0.00,0,weatherlink.com 1.10,2013-05-25 02:47:00,
2013-05-25 05:02:00,52.4,46.0,29.70,SW,228,0.0,4.0,79,0.00,,,0.00,0,weatherlink.com 1.10,2013-05-25 03:02:00,
2013-05-25 05:17:00,52.4,46.0,29.71,North,360,0.0,1.0,79,0.00,,,0.00,0,weatherlink.com 1.10,2013-05-25 03:17:00,
2013-05-25 05:32:00,52.3,46.0,29.71,NE,40,0.0,4.0,80,0.00,,,0.00,5,weatherlink.com 1.10,2013-05-25 03:32:00,
2013-05-25 05:47:00,52.2,46.0,29.72,NW,314,0.0,3.0,80,0.00,,,0.00,18,weatherlink.com 1.10,2013-05-25 03:47:00,
2013-05-25 06:02:00,52.4,46.0,29.71,NW,314,0.0,1.0,80,0.00,,,0.00,25,weatherlink.com 1.10,2013-05-25 04:02:00,
2013-05-25 06:17:00,52.4,47.0,29.72,WSW,241,0.0,3.0,81,0.00,,,0.00,58,weatherlink.com 1.10,2013-05-25 04:17:00,
2013-05-25 06:32:00,52.7,47.0,29.73,NE,37,0.0,2.0,80,0.00,,,0.00,35,weatherlink.com 1.10,2013-05-25 04:32:00,
2013-05-25 06:47:00,53.1,47.0,29.73,West,263,0.0,4.0,79,0.00,,,0.00,51,weatherlink.com 1.10,2013-05-25 04:47:00,
2013-05-25 07:02:00,53.5,48.0,29.72,North,355,3.0,3.0,80,0.00,,,0.00,107,weatherlink.com 1.10,2013-05-25 05:02:00,
2013-05-25 07:17:00,54.7,48.0,29.73,North,360,2.0,3.0,78,0.00,,,0.00,151,weatherlink.com 1.10,2013-05-25 05:17:00,
2013-05-25 07:32:00,56.6,48.0,29.73,NW,322,3.0,3.0,74,0.00,,,0.00,207,weatherlink.com 1.10,2013-05-25 05:32:00,
2013-05-25 07:47:00,59.9,49.0,29.73,SW,232,0.0,4.0,68,0.00,,,0.00,236,weatherlink.com 1.10,2013-05-25 05:47:00,
2013-05-25 08:02:00,60.3,48.0,29.74,WSW,240,0.0,4.0,65,0.00,,,0.00,506,weatherlink.com 1.10,2013-05-25 06:02:00,
2013-05-25 08:18:00,60.3,48.0,29.74,NNE,15,2.0,5.0,65,0.00,,,0.00,190,weatherlink.com 1.10,2013-05-25 06:18:00,
2013-05-25 08:33:00,59.9,49.0,29.75,North,5,4.0,7.0,67,0.00,,,0.00,274,weatherlink.com 1.10,2013-05-25 06:33:00,
2013-05-25 08:48:00,59.8,49.0,29.75,NNE,25,2.0,7.0,67,0.00,,,0.00,313,weatherlink.com 1.10,2013-05-25 06:48:00,
2013-05-25 09:03:00,62.0,49.0,29.75,WNW,297,3.0,3.0,63,0.00,,,0.00,234,weatherlink.com 1.10,2013-05-25 07:03:00,
2013-05-25 09:18:00,62.3,49.0,29.75,WSW,238,0.0,4.0,62,0.00,,,0.00,394,weatherlink.com 1.10,2013-05-25 07:18:00,
2013-05-25 09:33:00,60.6,49.0,29.74,SW,227,1.0,2.0,66,0.00,,,0.00,148,weatherlink.com 1.10,2013-05-25 07:33:00,
2013-05-25 09:48:00,63.3,49.0,29.75,North,351,2.0,5.0,61,0.00,,,0.00,267,weatherlink.com 1.10,2013-05-25 07:48:00,
2013-05-25 10:03:00,64.7,51.0,29.75,NNW,348,4.0,4.0,61,0.00,,,0.00,838,weatherlink.com 1.10,2013-05-25 08:03:00,
2013-05-25 10:18:00,64.1,50.0,29.75,NNW,344,1.0,6.0,61,0.00,,,0.00,884,weatherlink.com 1.10,2013-05-25 08:18:00,
2013-05-25 10:33:00,62.8,49.0,29.75,NW,323,2.0,6.0,60,0.00,,,0.00,146,weatherlink.com 1.10,2013-05-25 08:33:00,
2013-05-25 10:48:00,62.6,48.0,29.75,NNW,339,3.0,4.0,60,0.00,,,0.00,171,weatherlink.com 1.10,2013-05-25 08:48:00,
2013-05-25 11:03:00,61.7,48.0,29.76,NW,306,0.0,4.0,61,0.00,,,0.00,294,weatherlink.com 1.10,2013-05-25 09:03:00,
2013-05-25 11:18:00,62.4,49.0,29.76,SW,227,0.0,6.0,63,0.00,,,0.00,301,weatherlink.com 1.10,2013-05-25 09:18:00,
2013-05-25 11:33:00,66.7,49.0,29.75,NNW,336,4.0,8.0,54,0.00,,,0.00,294,weatherlink.com 1.10,2013-05-25 09:33:00,
2013-05-25 11:48:00,67.7,48.0,29.76,SW,234,1.0,8.0,50,0.00,,,0.00,907,weatherlink.com 1.10,2013-05-25 09:48:00,
2013-05-25 12:03:00,66.1,48.0,29.76,NNW,342,3.0,10.0,53,0.00,,,0.00,204,weatherlink.com 1.10,2013-05-25 10:03:00,
2013-05-25 12:18:00,63.7,48.0,29.77,NNE,12,0.0,4.0,57,0.00,,,0.00,221,weatherlink.com 1.10,2013-05-25 10:18:00,
2013-05-25 12:33:00,63.5,48.0,29.77,NNW,346,2.0,6.0,58,0.00,,,0.00,775,weatherlink.com 1.10,2013-05-25 10:33:00,
2013-05-25 12:48:00,66.0,50.0,29.77,North,360,1.0,11.0,56,0.00,,,0.00,306,weatherlink.com 1.10,2013-05-25 10:48:00,
2013-05-25 13:03:00,67.9,50.0,29.76,WSW,252,1.0,9.0,53,0.00,,,0.00,218,weatherlink.com 1.10,2013-05-25 11:03:00,
2013-05-25 13:18:00,66.8,49.0,29.75,West,276,0.0,8.0,53,0.00,,,0.00,265,weatherlink.com 1.10,2013-05-25 11:18:00,
2013-05-25 13:33:00,66.6,48.0,29.75,North,355,1.0,10.0,52,0.00,,,0.00,323,weatherlink.com 1.10,2013-05-25 11:33:00,
2013-05-25 13:48:00,65.7,48.0,29.75,WNW,294,0.0,8.0,54,0.00,,,0.00,299,weatherlink.com 1.10,2013-05-25 11:48:00,
2013-05-25 14:03:00,64.7,46.0,29.75,WSW,238,0.0,6.0,51,0.00,,,0.00,269,weatherlink.com 1.10,2013-05-25 12:03:00,
2013-05-25 14:18:00,65.9,48.0,29.75,WSW,242,0.0,4.0,52,0.00,,,0.00,432,weatherlink.com 1.10,2013-05-25 12:18:00,
2013-05-25 14:33:00,65.2,47.0,29.75,North,360,0.0,4.0,52,0.00,,,0.00,766,weatherlink.com 1.10,2013-05-25 12:33:00,
2013-05-25 14:48:00,64.7,46.0,29.75,SSW,212,2.0,4.0,51,0.00,,,0.00,322,weatherlink.com 1.10,2013-05-25 12:48:00,
2013-05-25 15:03:00,65.7,45.0,29.75,WNW,301,1.0,4.0,48,0.00,,,0.00,485,weatherlink.com 1.10,2013-05-25 13:03:00,
2013-05-25 15:18:00,63.8,47.0,29.76,SW,229,1.0,7.0,55,0.00,,,0.00,172,weatherlink.com 1.10,2013-05-25 13:18:00,
2013-05-25 15:33:00,62.3,48.0,29.76,SW,236,3.0,9.0,60,0.00,,,0.00,178,weatherlink.com 1.10,2013-05-25 13:33:00,
2013-05-25 15:48:00,62.5,49.0,29.76,SW,220,0.0,3.0,61,0.00,,,0.00,236,weatherlink.com 1.10,2013-05-25 13:48:00,
2013-05-25 16:03:00,61.5,50.0,29.76,SW,225,0.0,3.0,66,0.00,,,0.00,176,weatherlink.com 1.10,2013-05-25 14:03:00,
2013-05-25 16:18:00,63.5,51.0,29.75,North,360,4.0,5.0,64,0.00,,,0.00,628,weatherlink.com 1.10,2013-05-25 14:18:00,
2013-05-25 16:33:00,63.9,50.0,29.75,North,360,1.0,7.0,61,0.00,,,0.00,100,weatherlink.com 1.10,2013-05-25 14:33:00,
2013-05-25 16:48:00,61.1,49.0,29.75,WNW,300,0.0,4.0,64,0.00,,,0.00,97,weatherlink.com 1.10,2013-05-25 14:48:00,
2013-05-25 17:03:00,62.0,49.0,29.75,NNW,346,5.0,6.0,62,0.00,,,0.00,72,weatherlink.com 1.10,2013-05-25 15:03:00,
2013-05-25 17:18:00,62.0,49.0,29.75,North,355,2.0,2.0,62,0.00,,,0.00,72,weatherlink.com 1.10,2013-05-25 15:18:00,
2013-05-25 17:33:00,61.9,49.0,29.75,NW,305,0.0,5.0,62,0.00,,,0.00,72,weatherlink.com 1.10,2013-05-25 15:33:00,
2013-05-25 17:48:00,61.8,48.0,29.75,NNE,25,0.0,3.0,62,0.00,,,0.00,58,weatherlink.com 1.10,2013-05-25 15:48:00,
2013-05-25 18:03:00,61.5,48.0,29.75,North,360,0.0,1.0,62,0.00,,,0.00,40,weatherlink.com 1.10,2013-05-25 16:03:00,
2013-05-25 18:18:00,61.0,49.0,29.75,WNW,282,0.0,0.0,64,0.00,,,0.00,46,weatherlink.com 1.10,2013-05-25 16:18:00,
2013-05-25 18:33:00,60.1,49.0,29.75,WNW,283,0.0,1.0,68,0.00,,,0.00,42,weatherlink.com 1.10,2013-05-25 16:33:00,
2013-05-25 18:48:00,59.7,49.0,29.75,West,279,0.0,0.0,69,0.00,,,0.00,53,weatherlink.com 1.10,2013-05-25 16:48:00,
2013-05-25 19:03:00,59.6,49.0,29.75,WNW,282,0.0,0.0,68,0.00,,,0.00,63,weatherlink.com 1.10,2013-05-25 17:03:00,
2013-05-25 19:18:00,59.6,47.0,29.75,WNW,296,0.0,1.0,64,0.00,,,0.00,63,weatherlink.com 1.10,2013-05-25 17:18:00,
2013-05-25 19:33:00,59.9,50.0,29.75,WNW,296,0.0,0.0,69,0.00,,,0.00,53,weatherlink.com 1.10,2013-05-25 17:33:00,
2013-05-25 19:48:00,59.6,50.0,29.75,WNW,296,0.0,0.0,70,0.00,,,0.00,35,weatherlink.com 1.10,2013-05-25 17:48:00,
2013-05-25 20:03:00,58.9,49.0,29.75,WNW,296,0.0,1.0,69,0.00,,,0.00,18,weatherlink.com 1.10,2013-05-25 18:03:00,
2013-05-25 20:18:00,58.0,48.0,29.75,WNW,295,0.0,1.0,69,0.00,,,0.00,7,weatherlink.com 1.10,2013-05-25 18:18:00,
2013-05-25 20:33:00,57.1,47.0,29.75,WNW,297,0.0,0.0,69,0.00,,,0.00,0,weatherlink.com 1.10,2013-05-25 18:33:00,
2013-05-25 20:48:00,56.2,47.0,29.75,WNW,295,0.0,1.0,70,0.00,,,0.00,0,weatherlink.com 1.10,2013-05-25 18:48:00,
2013-05-25 21:03:00,55.6,46.0,29.75,WNW,294,0.0,1.0,71,0.00,,,0.00,0,weatherlink.com 1.10,2013-05-25 19:03:00,
2013-05-25 21:33:00,55.0,46.0,29.76,WNW,296,0.0,1.0,72,0.00,,,0.00,0,weatherlink.com 1.10,2013-05-25 19:33:00,
2013-05-25 22:18:00,54.8,47.0,29.75,WNW,296,0.0,1.0,74,0.00,,,0.00,0,weatherlink.com 1.10,2013-05-25 20:18:00,
2013-05-25 22:33:00,55.2,46.0,29.75,WNW,296,0.0,1.0,72,0.00,,,0.00,0,weatherlink.com 1.10,2013-05-25 20:33:00,
2013-05-25 22:48:00,55.6,48.0,29.75,WNW,296,0.0,2.0,76,0.00,,,0.00,0,weatherlink.com 1.10,2013-05-25 20:48:00,
2013-05-25 23:03:00,55.4,48.0,29.75,WNW,295,0.0,0.0,77,0.00,,,0.00,0,weatherlink.com 1.10,2013-05-25 21:03:00,
2013-05-25 23:18:00,55.1,48.0,29.75,WNW,294,0.0,1.0,76,0.00,,,0.00,0,weatherlink.com 1.10,2013-05-25 21:18:00,
2013-05-25 23:33:00,55.1,47.0,29.75,North,360,0.0,3.0,73,0.00,,,0.00,0,weatherlink.com 1.10,2013-05-25 21:33:00,
2013-05-25 23:48:00,55.4,46.0,29.75,North,360,0.0,1.0,71,0.00,,,0.00,0,weatherlink.com 1.10,2013-05-25 21:48:00,